Time;durP1;ratioP1;P1;durP2;ratioP2;P2;SDS_P1;SDS_P2;PMS_P1;PMS_P2;Temp;Humidity;BMP_temperature;BMP_pressure;BME280_temperature;BME280_humidity;BME280_pressure;Samples;Min_cycle;Max_cycle;Signal;HPM_P1;HPM_P2
2022/05/25 00:00:14;;;;;;;0.60;0.40;;;;;;;12.06;100.00;95568.03;5015880;28;24845;-74
2022/05/25 00:02:41;;;;;;;1.80;0.50;;;;;;;11.98;100.00;95571.16;5014654;28;24540;-74
2022/05/25 00:05:10;;;;;;;1.10;0.40;;;;;;;11.90;100.00;95575.22;5021076;28;24961;-74
2022/05/25 00:07:36;;;;;;;2.63;0.70;;;;;;;12.03;100.00;95576.03;5025390;28;24439;-74
2022/05/25 00:10:03;;;;;;;0.75;0.63;;;;;;;12.17;100.00;95568.06;5012113;28;24460;-74
2022/05/25 00:12:30;;;;;;;1.00;0.40;;;;;;;12.26;100.00;95564.78;5030837;28;24822;-74
2022/05/25 00:14:57;;;;;;;0.95;0.50;;;;;;;12.32;100.00;95581.72;5021292;28;25028;-74
2022/05/25 00:17:24;;;;;;;4.07;0.50;;;;;;;12.35;100.00;95579.72;5012354;28;24973;-74
2022/05/25 00:19:59;;;;;;;1.17;0.43;;;;;;;12.41;100.00;95578.44;5030560;28;25005;-74
2022/05/25 00:22:26;;;;;;;2.47;0.90;;;;;;;12.47;100.00;95579.78;5011002;28;24518;-74
2022/05/25 00:24:56;;;;;;;1.70;0.45;;;;;;;12.45;100.00;95573.84;5018280;28;24439;-74
2022/05/25 00:27:22;;;;;;;0.93;0.50;;;;;;;12.48;100.00;95571.84;5029161;28;24438;-74
2022/05/25 00:29:49;;;;;;;0.60;0.40;;;;;;;12.47;100.00;95575.41;5011207;28;24444;-74
2022/05/25 00:32:17;;;;;;;1.30;0.40;;;;;;;12.59;100.00;95573.66;5016693;28;24849;-74
2022/05/25 00:34:43;;;;;;;0.47;0.30;;;;;;;12.47;100.00;95583.19;5014421;28;24471;-74
2022/05/25 00:37:10;;;;;;;1.33;0.55;;;;;;;12.37;100.00;95578.78;5030292;28;24442;-76
2022/05/25 00:39:36;;;;;;;1.58;0.50;;;;;;;12.41;100.00;95586.22;5011365;28;24483;-76
2022/05/25 00:42:04;;;;;;;1.67;0.75;;;;;;;12.31;100.00;95585.22;5016813;28;24490;-76
2022/05/25 00:44:30;;;;;;;1.08;0.35;;;;;;;12.14;100.00;95585.63;5014789;28;24456;-76
2022/05/25 00:46:57;;;;;;;0.80;0.30;;;;;;;12.06;100.00;95593.97;5023730;28;24829;-76
2022/05/25 00:49:28;;;;;;;2.53;0.80;;;;;;;12.03;100.00;95595.03;5029630;28;24518;-76
2022/05/25 00:51:57;;;;;;;2.42;0.75;;;;;;;12.04;100.00;95596.66;5015194;28;24435;-76
2022/05/25 00:54:29;;;;;;;2.80;0.60;;;;;;;12.08;100.00;95600.69;5016031;28;24853;-76
2022/05/25 00:57:00;;;;;;;0.80;0.47;;;;;;;12.14;100.00;95609.84;5022299;28;25015;-76
2022/05/25 00:59:31;;;;;;;0.90;0.40;;;;;;;12.06;100.00;95600.00;5030257;28;24443;-76
2022/05/25 01:01:58;;;;;;;1.67;0.70;;;;;;;12.15;100.00;95595.06;5010496;28;24440;-76
2022/05/25 01:04:27;;;;;;;1.58;0.60;;;;;;;12.20;100.00;95603.34;5022535;28;24802;-76
2022/05/25 01:07:17;;;;;;;0.70;0.40;;;;;;;12.27;100.00;95615.81;5028580;28;24996;-75
2022/05/25 01:09:59;;;;;;;2.77;0.70;;;;;;;12.25;100.00;95609.06;5010705;28;24432;-75
2022/05/25 01:12:39;;;;;;;0.52;0.50;;;;;;;12.19;100.00;95618.09;5010337;28;24467;-75
2022/05/25 01:15:15;;;;;;;1.27;0.60;;;;;;;12.16;100.00;95618.31;5028939;28;24459;-75
2022/05/25 01:17:52;;;;;;;0.65;0.55;;;;;;;12.21;100.00;95618.00;5022634;28;24444;-75
2022/05/25 01:20:27;;;;;;;0.88;0.60;;;;;;;12.18;100.00;95619.06;5010448;28;24524;-75
2022/05/25 01:23:27;;;;;;;0.73;0.52;;;;;;;12.20;100.00;95619.78;5025686;28;25051;-75
2022/05/25 01:26:29;;;;;;;0.63;0.43;;;;;;;12.17;100.00;95620.00;5019128;28;24479;-75
2022/05/25 01:29:07;;;;;;;1.00;0.60;;;;;;;12.04;100.00;95606.22;5028535;28;24801;-75
2022/05/25 01:31:45;;;;;;;1.15;0.50;;;;;;;12.01;100.00;95604.66;5010498;28;24838;-75
2022/05/25 01:34:19;;;;;;;0.95;0.60;;;;;;;11.91;100.00;95601.09;5021416;28;24440;-75
2022/05/25 01:36:54;;;;;;;2.07;0.60;;;;;;;12.05;100.00;95603.53;5029703;28;25035;-75
2022/05/25 01:39:25;;;;;;;1.33;0.63;;;;;;;12.04;100.00;95612.25;5010262;28;24436;-75
2022/05/25 01:41:57;;;;;;;1.80;0.60;;;;;;;11.77;100.00;95611.56;5014194;28;24980;-75
2022/05/25 01:44:27;;;;;;;1.67;0.68;;;;;;;11.57;100.00;95606.00;5016970;28;24491;-75
2022/05/25 01:46:59;;;;;;;2.38;0.50;;;;;;;11.62;100.00;95622.06;5010106;28;24786;-75
2022/05/25 01:49:33;;;;;;;1.10;0.43;;;;;;;11.66;100.00;95617.50;5016176;28;24992;-75
2022/05/25 01:52:03;;;;;;;2.08;0.68;;;;;;;11.55;100.00;95625.19;5029509;28;24535;-75
2022/05/25 01:54:33;;;;;;;1.10;0.60;;;;;;;11.69;100.00;95616.47;5011651;28;24440;-75
2022/05/25 01:57:06;;;;;;;3.70;0.50;;;;;;;11.83;100.00;95617.19;5012401;28;24869;-75
2022/05/25 01:59:32;;;;;;;0.70;0.40;;;;;;;11.82;100.00;95614.66;5021506;28;24433;-75
2022/05/25 02:04:49;;;;;;;1.70;0.30;;;;;;;11.71;100.00;95622.38;5015206;28;24447;-75
2022/05/25 02:07:30;;;;;;;0.57;0.43;;;;;;;11.73;100.00;95623.94;5027514;28;24432;-75
2022/05/25 02:10:20;;;;;;;2.10;0.50;;;;;;;11.73;100.00;95623.09;5024057;28;25005;-75
2022/05/25 02:13:07;;;;;;;1.10;0.52;;;;;;;11.75;100.00;95623.81;5015367;28;24806;-75
2022/05/25 02:15:41;;;;;;;0.35;0.35;;;;;;;11.73;100.00;95623.09;5032644;28;24487;-75
2022/05/25 02:18:17;;;;;;;0.73;0.50;;;;;;;11.74;100.00;95617.78;5019631;28;24443;-75
2022/05/25 02:20:51;;;;;;;0.90;0.50;;;;;;;11.63;100.00;95625.50;5014190;28;24439;-76
2022/05/25 02:23:25;;;;;;;1.00;0.52;;;;;;;11.71;100.00;95624.97;5020636;28;24491;-75
2022/05/25 02:25:57;;;;;;;0.77;0.40;;;;;;;11.63;100.00;95630.69;5023864;28;24443;-75
2022/05/25 02:28:28;;;;;;;1.38;0.50;;;;;;;11.24;100.00;95634.25;5031920;28;24995;-75
2022/05/25 02:30:58;;;;;;;3.30;0.70;;;;;;;11.09;100.00;95630.94;5024310;28;24443;-75
2022/05/25 02:33:31;;;;;;;0.88;0.50;;;;;;;10.98;100.00;95636.00;5032021;28;24443;-75
2022/05/25 02:35:59;;;;;;;2.00;0.70;;;;;;;10.90;100.00;95637.34;5032629;28;24452;-75
2022/05/25 02:38:26;;;;;;;0.98;0.43;;;;;;;10.86;100.00;95633.28;5016531;28;24436;-75
2022/05/25 02:41:03;;;;;;;1.00;0.50;;;;;;;10.93;100.00;95638.06;5015801;28;25094;-74
2022/05/25 02:43:30;;;;;;;1.20;0.40;;;;;;;10.95;100.00;95636.19;5023708;28;24487;-74
2022/05/25 02:45:57;;;;;;;1.30;0.22;;;;;;;10.90;100.00;95636.47;5038859;22;24471;-76
2022/05/25 02:48:25;;;;;;;0.90;0.50;;;;;;;10.82;100.00;95630.97;5012606;28;24455;-76
2022/05/25 02:50:52;;;;;;;1.33;0.60;;;;;;;10.77;100.00;95628.69;5012422;28;24451;-76
2022/05/25 02:53:20;;;;;;;1.10;0.52;;;;;;;10.78;100.00;95634.72;5006209;28;24495;-76
2022/05/25 02:55:46;;;;;;;2.07;0.60;;;;;;;10.85;100.00;95639.38;5000152;28;24467;-76
2022/05/25 02:58:13;;;;;;;1.50;0.67;;;;;;;11.00;100.00;95631.53;4993432;28;24440;-76
2022/05/25 03:00:39;;;;;;;1.23;0.50;;;;;;;10.91;100.00;95630.38;5002995;28;24498;-76
2022/05/25 03:03:06;;;;;;;0.30;0.28;;;;;;;11.00;100.00;95634.13;4992940;28;24441;-76
2022/05/25 03:05:34;;;;;;;1.15;0.43;;;;;;;11.17;100.00;95640.78;4992528;28;24491;-76
2022/05/25 03:08:00;;;;;;;0.80;0.50;;;;;;;11.13;100.00;95638.38;4992315;28;25008;-76
2022/05/25 03:10:26;;;;;;;4.35;0.50;;;;;;;11.20;100.00;95645.72;4992692;28;24460;-77
2022/05/25 03:12:54;;;;;;;0.57;0.40;;;;;;;11.36;100.00;95638.59;4992670;28;24482;-77
2022/05/25 03:15:21;;;;;;;0.47;0.30;;;;;;;11.38;100.00;95642.75;4991919;28;24468;-77
2022/05/25 03:17:48;;;;;;;0.82;0.50;;;;;;;11.44;100.00;95645.84;4992610;28;24527;-76
2022/05/25 03:20:15;;;;;;;4.05;0.40;;;;;;;11.48;100.00;95644.72;4976451;28;24802;-77
2022/05/25 03:22:44;;;;;;;0.95;0.57;;;;;;;11.44;100.00;95649.28;4992385;28;24441;-77
2022/05/25 03:25:11;;;;;;;0.87;0.53;;;;;;;11.46;100.00;95641.38;4991828;28;24441;-76
2022/05/25 03:27:37;;;;;;;0.50;0.40;;;;;;;11.45;100.00;95645.75;4991925;28;24511;-76
2022/05/25 03:30:05;;;;;;;1.55;0.63;;;;;;;11.50;100.00;95650.63;4991783;28;24448;-76
2022/05/25 03:32:31;;;;;;;1.48;0.52;;;;;;;11.49;100.00;95660.16;4992044;28;25012;-76
2022/05/25 03:34:59;;;;;;;1.10;0.60;;;;;;;11.51;100.00;95655.69;4991041;28;25081;-76
2022/05/25 03:37:26;;;;;;;1.17;0.70;;;;;;;11.49;100.00;95654.97;4991545;28;24519;-77
2022/05/25 03:39:53;;;;;;;0.30;0.30;;;;;;;11.46;100.00;95665.56;4991076;28;24441;-76
2022/05/25 03:42:22;;;;;;;1.60;0.50;;;;;;;11.12;100.00;95673.03;4990616;28;24445;-76
2022/05/25 03:44:49;;;;;;;1.20;0.50;;;;;;;11.02;100.00;95673.72;4990142;28;24448;-76
2022/05/25 03:47:16;;;;;;;0.80;0.45;;;;;;;11.15;100.00;95674.56;4991761;28;24440;-77
2022/05/25 03:49:42;;;;;;;1.25;0.45;;;;;;;11.06;100.00;95683.78;4991849;28;24440;-75
2022/05/25 03:52:10;;;;;;;0.93;0.32;;;;;;;11.05;100.00;95679.53;4991632;28;25005;-76
2022/05/25 03:54:37;;;;;;;1.73;0.43;;;;;;;11.00;100.00;95685.94;4991844;28;24449;-76
2022/05/25 03:57:06;;;;;;;1.83;0.50;;;;;;;10.94;100.00;95687.19;4991442;28;24449;-76
2022/05/25 03:59:33;;;;;;;0.93;0.38;;;;;;;11.13;100.00;95686.81;4991795;28;24433;-76
2022/05/25 04:01:59;;;;;;;2.30;0.60;;;;;;;11.24;100.00;95697.31;4988512;28;24532;-76
2022/05/25 04:04:25;;;;;;;0.95;0.50;;;;;;;11.12;100.00;95695.50;4991212;28;24850;-76
2022/05/25 04:06:52;;;;;;;1.13;0.57;;;;;;;10.94;100.00;95697.56;4991621;28;24850;-75
2022/05/25 04:09:18;;;;;;;2.05;0.60;;;;;;;10.87;100.00;95697.13;4991157;28;24433;-77
2022/05/25 04:11:45;;;;;;;0.55;0.30;;;;;;;10.72;100.00;95708.47;4991691;28;24441;-76
2022/05/25 04:14:15;;;;;;;3.00;0.60;;;;;;;10.75;100.00;95718.63;4991281;28;24500;-74
2022/05/25 04:16:41;;;;;;;0.85;0.60;;;;;;;11.00;100.00;95717.03;4991260;28;25013;-74
2022/05/25 04:19:08;;;;;;;0.95;0.57;;;;;;;10.98;100.00;95716.34;4991508;28;24444;-74
2022/05/25 04:21:35;;;;;;;8.90;0.90;;;;;;;10.83;100.00;95726.75;4991359;28;24436;-74
2022/05/25 04:24:02;;;;;;;1.10;0.60;;;;;;;10.81;100.00;95725.19;4991371;28;24511;-74
2022/05/25 04:26:30;;;;;;;0.97;0.50;;;;;;;11.02;100.00;95728.16;4991384;28;24803;-75
2022/05/25 04:28:56;;;;;;;2.38;0.70;;;;;;;11.11;100.00;95737.91;4991205;28;25006;-75
2022/05/25 04:31:24;;;;;;;1.07;0.50;;;;;;;11.19;100.00;95740.81;4991773;28;24479;-74
2022/05/25 04:33:51;;;;;;;2.60;0.85;;;;;;;11.14;100.00;95743.72;4991268;28;24434;-74
2022/05/25 04:36:17;;;;;;;0.60;0.40;;;;;;;11.11;100.00;95740.50;4991196;28;24992;-75
2022/05/25 04:38:44;;;;;;;1.35;0.73;;;;;;;11.18;100.00;95746.94;4971836;28;24444;-74
2022/05/25 04:41:10;;;;;;;0.85;0.55;;;;;;;11.01;100.00;95750.66;4978522;28;24433;-75
2022/05/25 04:43:37;;;;;;;2.25;0.60;;;;;;;10.97;100.00;95743.16;4990072;28;24437;-75
2022/05/25 04:46:08;;;;;;;1.40;0.73;;;;;;;10.76;100.00;95751.41;4990938;28;24552;-75
2022/05/25 04:48:36;;;;;;;0.80;0.55;;;;;;;10.89;100.00;95752.25;4991299;28;24491;-75
2022/05/25 04:51:04;;;;;;;1.30;0.50;;;;;;;11.07;100.00;95752.00;4991114;28;24437;-75
2022/05/25 04:53:30;;;;;;;2.70;0.80;;;;;;;10.96;100.00;95757.88;4990550;28;25009;-75
2022/05/25 04:58:44;;;;;;;1.07;0.57;;;;;;;10.98;100.00;95766.41;4991047;28;24548;-75
2022/05/25 05:01:12;;;;;;;1.20;0.60;;;;;;;11.06;100.00;95768.50;4990990;28;25017;-75
2022/05/25 05:03:40;;;;;;;1.83;0.60;;;;;;;11.33;100.00;95774.47;4991128;28;24424;-75
2022/05/25 05:06:09;;;;;;;1.20;0.60;;;;;;;11.45;100.00;95770.22;4990945;28;24463;-75
2022/05/25 05:08:36;;;;;;;1.48;0.45;;;;;;;11.50;100.00;95775.13;4990836;28;24788;-75
2022/05/25 05:11:07;;;;;;;0.60;0.30;;;;;;;11.50;100.00;95777.72;4990666;28;24799;-75
2022/05/25 05:13:33;;;;;;;1.90;0.40;;;;;;;11.45;100.00;95779.75;4990715;28;24433;-75
2022/05/25 05:16:05;;;;;;;2.00;0.65;;;;;;;11.54;100.00;95777.41;4988594;28;24567;-74
2022/05/25 05:18:31;;;;;;;1.17;0.40;;;;;;;11.65;100.00;95784.47;4991118;28;24445;-75
2022/05/25 05:20:59;;;;;;;1.90;0.50;;;;;;;11.78;100.00;95785.28;4991563;28;24803;-73
2022/05/25 05:23:26;;;;;;;2.85;1.10;;;;;;;11.80;100.00;95793.81;4988798;28;24961;-75
2022/05/25 05:25:53;;;;;;;1.60;0.80;;;;;;;12.14;100.00;95782.94;4983635;28;24449;-74
2022/05/25 05:28:22;;;;;;;0.80;0.55;;;;;;;12.55;100.00;95787.84;4988772;28;24429;-74
2022/05/25 05:30:51;;;;;;;3.47;0.60;;;;;;;12.42;100.00;95782.72;4990498;28;24442;-74
2022/05/25 05:33:17;;;;;;;0.98;0.57;;;;;;;12.75;100.00;95794.22;4990705;28;24433;-75
2022/05/25 05:35:45;;;;;;;1.40;0.80;;;;;;;12.86;100.00;95796.06;4993533;28;24448;-73
2022/05/25 05:38:15;;;;;;;1.20;0.40;;;;;;;12.97;100.00;95796.97;4994448;28;24457;-74
2022/05/25 05:40:42;;;;;;;1.20;0.50;;;;;;;13.05;100.00;95796.41;4994271;28;24974;-75
2022/05/25 05:43:10;;;;;;;1.40;0.50;;;;;;;13.39;100.00;95794.00;4994472;28;24445;-73
2022/05/25 05:45:39;;;;;;;2.13;0.52;;;;;;;13.45;100.00;95794.38;4994092;28;24456;-77
2022/05/25 05:48:10;;;;;;;1.23;0.45;;;;;;;13.49;95.70;95806.19;4995634;28;24950;-78
2022/05/25 05:50:39;;;;;;;1.17;0.50;;;;;;;13.60;97.16;95802.81;4997326;28;24429;-78
2022/05/25 05:53:06;;;;;;;0.60;0.40;;;;;;;13.72;93.33;95814.94;4996343;28;24437;-77
2022/05/25 05:55:35;;;;;;;0.77;0.50;;;;;;;13.84;88.41;95815.78;4995688;28;24440;-78
2022/05/25 05:58:01;;;;;;;0.80;0.50;;;;;;;13.56;88.25;95807.41;4996563;28;24440;-75
2022/05/25 06:00:28;;;;;;;1.38;0.70;;;;;;;13.95;95.11;95812.38;4994170;28;24977;-75
2022/05/25 06:02:54;;;;;;;1.45;0.70;;;;;;;14.26;92.41;95809.06;4994358;28;24448;-75
2022/05/25 06:05:21;;;;;;;2.43;0.70;;;;;;;14.31;90.99;95811.31;4994007;28;25049;-77
2022/05/25 06:07:47;;;;;;;1.17;0.63;;;;;;;14.22;91.68;95810.25;4979176;28;24994;-76
2022/05/25 06:10:13;;;;;;;2.97;0.68;;;;;;;14.37;92.88;95815.25;4991183;28;24444;-77
2022/05/25 06:12:41;;;;;;;0.68;0.47;;;;;;;14.57;92.19;95813.72;4995707;28;24982;-76
2022/05/25 06:20:29;;;;;;;1.90;0.68;;;;;;;15.06;88.44;95836.78;4971425;28;24433;-76
2022/05/25 06:22:56;;;;;;;1.15;0.47;;;;;;;15.19;89.87;95842.66;4993559;28;24440;-76
2022/05/25 06:25:22;;;;;;;2.07;0.80;;;;;;;15.50;90.09;95842.81;4993929;28;24838;-77
2022/05/25 06:27:50;;;;;;;1.30;0.63;;;;;;;15.46;83.30;95846.59;4994421;28;24409;-74
2022/05/25 06:30:17;;;;;;;1.27;0.63;;;;;;;15.58;85.64;95847.41;4993824;28;24444;-75
2022/05/25 06:32:43;;;;;;;0.98;0.50;;;;;;;15.73;83.77;95854.03;4993420;28;24440;-75
2022/05/25 06:35:11;;;;;;;4.00;0.73;;;;;;;15.90;87.10;95852.63;4992971;28;24444;-75
2022/05/25 06:37:37;;;;;;;1.45;0.60;;;;;;;16.01;86.82;95857.78;4993472;28;24543;-74
2022/05/25 06:40:04;;;;;;;1.90;0.60;;;;;;;16.28;83.90;95856.41;4993540;28;24826;-73
2022/05/25 06:42:30;;;;;;;2.60;0.82;;;;;;;15.93;80.63;95853.19;4993216;28;24495;-74
2022/05/25 06:44:58;;;;;;;1.15;0.65;;;;;;;16.06;80.31;95857.41;4992417;28;24448;-77
2022/05/25 06:47:25;;;;;;;2.40;0.70;;;;;;;15.74;79.58;95866.13;4993094;28;24437;-74
2022/05/25 06:49:53;;;;;;;2.35;0.85;;;;;;;15.56;82.65;95860.56;4986874;28;24429;-77
2022/05/25 06:52:20;;;;;;;2.80;0.90;;;;;;;15.72;80.48;95861.03;4989900;28;24437;-77
2022/05/25 06:54:47;;;;;;;1.80;0.80;;;;;;;15.56;80.61;95860.56;4992705;28;24528;-77
2022/05/25 06:57:13;;;;;;;4.20;1.05;;;;;;;15.00;81.10;95873.75;4992780;28;24549;-77
2022/05/25 06:59:40;;;;;;;3.13;1.02;;;;;;;15.09;84.57;95875.66;4993501;28;24436;-77
2022/05/25 07:02:08;;;;;;;3.35;1.02;;;;;;;15.39;82.83;95874.19;4992969;28;24444;-75
2022/05/25 07:04:34;;;;;;;3.63;1.02;;;;;;;15.45;81.40;95873.66;4991751;28;24444;-75
2022/05/25 07:07:02;;;;;;;2.30;0.80;;;;;;;15.05;79.28;95879.44;4992660;28;24433;-76
2022/05/25 07:09:30;;;;;;;3.83;0.83;;;;;;;15.06;79.66;95875.91;4992944;28;25006;-76
2022/05/25 07:11:57;;;;;;;2.97;0.95;;;;;;;15.76;82.72;95879.88;4992716;28;24433;-75
2022/05/25 07:14:24;;;;;;;8.48;0.85;;;;;;;16.05;77.28;95874.84;4991715;28;25353;-76
2022/05/25 07:16:50;;;;;;;1.52;0.73;;;;;;;16.56;71.91;95878.47;4991955;28;25286;-77
2022/05/25 07:19:18;;;;;;;1.35;0.60;;;;;;;16.95;72.50;95884.72;4993793;28;24433;-76
2022/05/25 07:21:44;;;;;;;2.28;0.90;;;;;;;17.36;69.58;95888.13;4993759;28;25018;-78
2022/05/25 07:24:11;;;;;;;1.95;0.80;;;;;;;17.32;70.00;95884.13;4992691;28;24441;-77
2022/05/25 07:26:37;;;;;;;1.75;0.80;;;;;;;17.61;70.76;95884.16;4993419;28;24465;-78
2022/05/25 07:29:04;;;;;;;1.65;0.93;;;;;;;17.94;72.23;95884.75;4993080;28;24445;-77
2022/05/25 07:31:37;;;;;;;2.05;0.70;;;;;;;18.00;66.83;95886.81;4988444;28;25037;-76
2022/05/25 07:34:08;;;;;;;2.30;0.70;;;;;;;17.78;65.44;95895.78;4990441;28;24442;-76
2022/05/25 07:36:37;;;;;;;4.35;0.77;;;;;;;17.62;63.84;95896.31;4991789;28;24461;-76
2022/05/25 07:39:07;;;;;;;3.33;0.70;;;;;;;17.68;65.31;95890.50;4983037;28;24444;-75
2022/05/25 07:41:36;;;;;;;2.20;0.90;;;;;;;17.66;66.92;95895.06;4991887;28;24447;-77
2022/05/25 07:44:03;;;;;;;2.00;0.68;;;;;;;18.02;64.25;95888.34;4975656;28;24899;-77
2022/05/25 07:46:30;;;;;;;1.40;0.60;;;;;;;18.32;63.25;95897.00;4991332;28;24437;-77
2022/05/25 07:48:57;;;;;;;1.80;0.70;;;;;;;18.41;63.47;95893.53;4992056;28;24456;-76
2022/05/25 07:51:25;;;;;;;2.28;0.70;;;;;;;18.70;63.48;95898.69;4991682;28;24507;-76
2022/05/25 07:53:58;;;;;;;2.72;0.80;;;;;;;18.97;60.97;95894.47;4990968;28;24447;-76
2022/05/25 07:56:26;;;;;;;3.80;0.80;;;;;;;19.40;64.87;95898.28;4990450;28;24846;-76
2022/05/25 07:58:54;;;;;;;1.73;0.65;;;;;;;19.28;61.12;95895.84;4991221;28;24441;-76
2022/05/25 08:05:43;;;;;;;1.65;0.70;;;;;;;18.95;54.11;95899.88;4991320;28;24444;-74
2022/05/25 08:06:55;;;;;;;1.10;0.50;;;;;;;17.61;59.40;95908.56;4990982;28;25001;-75
2022/05/25 08:09:23;;;;;;;6.53;0.90;;;;;;;17.25;56.86;95899.53;4991103;28;24817;-75
2022/05/25 08:11:49;;;;;;;3.53;0.68;;;;;;;16.69;61.17;95902.63;4991367;28;24484;-75
2022/05/25 08:14:16;;;;;;;1.40;0.50;;;;;;;16.85;55.72;95899.53;4990552;28;24487;-75
2022/05/25 08:16:42;;;;;;;2.03;0.47;;;;;;;17.14;55.88;95895.25;4991126;28;24499;-72
2022/05/25 08:19:09;;;;;;;1.33;0.45;;;;;;;17.57;55.02;95893.25;4991070;28;24440;-77
2022/05/25 08:21:35;;;;;;;2.33;0.50;;;;;;;17.52;53.71;95887.59;4991157;28;24509;-76
2022/05/25 08:24:02;;;;;;;0.98;0.57;;;;;;;16.95;55.14;95904.81;4990485;28;24802;-76
2022/05/25 08:26:29;;;;;;;2.28;0.50;;;;;;;16.85;55.59;95907.38;4990106;28;24433;-76
2022/05/25 08:28:56;;;;;;;0.82;0.45;;;;;;;16.82;57.52;95908.47;4990760;28;24440;-75
2022/05/25 08:31:22;;;;;;;3.10;0.70;;;;;;;16.39;56.12;95903.44;4991015;28;24433;-76
2022/05/25 08:33:49;;;;;;;0.73;0.45;;;;;;;16.15;55.58;95901.06;4990278;28;24810;-79
2022/05/25 08:36:15;;;;;;;3.38;0.47;;;;;;;16.15;58.07;95893.22;4992083;28;24416;-77
2022/05/25 08:38:42;;;;;;;3.97;0.57;;;;;;;16.31;56.08;95898.81;4992125;28;24448;-77
2022/05/25 08:41:09;;;;;;;2.40;0.50;;;;;;;16.04;58.35;95906.34;4992226;28;24524;-78
2022/05/25 08:43:42;;;;;;;1.27;0.40;;;;;;;15.97;56.57;95895.56;4992126;28;24445;-77
2022/05/25 08:46:14;;;;;;;1.55;0.43;;;;;;;16.52;54.49;95901.41;4991874;28;24448;-77
2022/05/25 08:48:41;;;;;;;1.00;0.50;;;;;;;16.78;56.71;95904.47;4991894;28;24527;-78
2022/05/25 08:51:13;;;;;;;1.50;0.47;;;;;;;17.39;57.15;95899.16;4991956;28;24440;-77
2022/05/25 08:53:40;;;;;;;3.28;0.60;;;;;;;17.47;56.15;95893.25;4992265;28;24441;-76
2022/05/25 08:56:16;;;;;;;3.30;0.60;;;;;;;18.08;55.27;95889.56;4991897;28;24445;-77
2022/05/25 08:58:47;;;;;;;1.00;0.50;;;;;;;18.41;50.40;95888.28;4992213;28;24802;-77
2022/05/25 09:01:21;;;;;;;1.95;0.60;;;;;;;18.53;47.94;95897.63;4991749;28;24445;-76
2022/05/25 09:03:55;;;;;;;2.03;0.40;;;;;;;17.75;52.47;95898.63;4991314;28;25104;-77
2022/05/25 09:06:29;;;;;;;2.47;0.70;;;;;;;17.72;51.31;95891.88;4994493;28;24486;-77
2022/05/25 09:09:03;;;;;;;1.25;0.60;;;;;;;17.33;52.61;95899.69;4993233;28;24471;-74
2022/05/25 09:11:38;;;;;;;3.80;0.50;;;;;;;16.79;52.95;95897.44;4979161;28;24437;-75
2022/05/25 09:14:14;;;;;;;1.33;0.50;;;;;;;16.90;53.91;95899.97;4994308;28;24534;-74
2022/05/25 09:16:42;;;;;;;2.42;0.55;;;;;;;17.66;49.91;95902.91;4994535;28;24441;-73
2022/05/25 09:19:13;;;;;;;0.70;0.43;;;;;;;18.00;52.13;95894.69;4994356;28;24464;-71
2022/05/25 09:21:45;;;;;;;2.80;0.70;;;;;;;17.87;51.43;95900.19;4994523;28;25006;-74
2022/05/25 09:24:15;;;;;;;2.57;0.60;;;;;;;18.16;51.58;95894.09;4994024;28;24487;-74
2022/05/25 09:26:43;;;;;;;2.30;0.47;;;;;;;18.75;50.62;95895.66;4994604;28;24444;-73
2022/05/25 09:29:11;;;;;;;0.82;0.38;;;;;;;18.96;46.41;95901.53;4994423;28;25076;-75
2022/05/25 09:31:45;;;;;;;1.48;0.50;;;;;;;18.66;49.44;95909.63;4994718;28;24440;-75
2022/05/25 09:34:22;;;;;;;1.17;0.50;;;;;;;18.25;47.48;95915.06;4994063;28;24444;-74
2022/05/25 09:36:53;;;;;;;1.67;0.50;;;;;;;18.02;47.89;95914.56;4994389;28;24445;-75
2022/05/25 09:39:26;;;;;;;1.00;0.60;;;;;;;17.70;49.93;95919.19;4975263;28;24449;-74
2022/05/25 09:41:56;;;;;;;1.58;0.80;;;;;;;17.19;49.62;95913.16;4982635;28;24432;-75
2022/05/25 09:44:25;;;;;;;2.78;0.55;;;;;;;17.04;51.28;95912.69;4993923;28;24455;-74
2022/05/25 09:46:55;;;;;;;0.90;0.50;;;;;;;16.99;49.94;95917.50;4993703;28;24433;-73
2022/05/25 09:49:30;;;;;;;1.50;0.52;;;;;;;17.27;53.46;95915.94;4994694;28;24445;-75
2022/05/25 09:52:02;;;;;;;2.70;0.60;;;;;;;17.52;51.04;95924.25;4994525;28;24511;-72
2022/05/25 09:54:33;;;;;;;1.30;0.50;;;;;;;17.68;48.31;95919.31;4994213;28;24433;-72
2022/05/25 09:57:05;;;;;;;1.88;0.40;;;;;;;17.89;47.46;95914.00;4994539;28;24424;-73
2022/05/25 09:59:35;;;;;;;1.05;0.47;;;;;;;18.57;48.02;95906.84;4994351;28;24774;-74
2022/05/25 10:02:03;;;;;;;2.88;0.63;;;;;;;18.69;47.04;95906.69;4994238;28;24444;-73
2022/05/25 10:04:51;;;;;;;1.70;0.68;;;;;;;18.18;48.89;95915.78;4993949;28;24448;-75
2022/05/25 10:07:21;;;;;;;1.30;0.50;;;;;;;17.99;47.26;95914.00;4993796;28;24487;-74
2022/05/25 10:09:51;;;;;;;0.98;0.45;;;;;;;18.46;51.88;95912.25;4993549;28;25020;-74
2022/05/25 10:12:19;;;;;;;0.95;0.50;;;;;;;19.27;46.54;95916.97;4993924;28;24846;-74
2022/05/25 10:14:56;;;;;;;2.67;0.63;;;;;;;20.14;51.52;95908.53;4993546;28;24444;-74
2022/05/25 10:17:31;;;;;;;2.35;0.55;;;;;;;20.31;44.90;95905.03;4993695;28;24507;-76
2022/05/25 10:19:59;;;;;;;3.40;0.60;;;;;;;19.72;42.29;95910.94;4992728;28;24528;-75
2022/05/25 10:22:32;;;;;;;1.30;0.60;;;;;;;19.23;44.98;95905.94;4993595;28;25080;-72
2022/05/25 10:25:01;;;;;;;1.38;0.60;;;;;;;19.33;44.49;95919.03;4993021;28;24532;-71
2022/05/25 10:27:34;;;;;;;3.27;0.60;;;;;;;19.29;44.59;95923.75;4993253;28;24982;-72
2022/05/25 10:38:41;;;;;;;1.52;0.50;;;;;;;17.85;47.09;95916.06;4993282;28;24855;-72
2022/05/25 10:44:05;;;;;;;1.40;0.50;;;;;;;17.71;47.55;95910.34;4992450;28;24870;-73
2022/05/25 10:46:33;;;;;;;2.17;0.60;;;;;;;17.55;49.75;95918.75;4993225;28;24472;-74
2022/05/25 10:49:07;;;;;;;2.05;0.65;;;;;;;17.57;50.25;95911.56;4992875;28;25013;-74
2022/05/25 10:51:41;;;;;;;2.05;0.40;;;;;;;18.01;49.76;95905.00;4992844;28;24436;-74
2022/05/25 10:57:08;;;;;;;1.75;0.50;;;;;;;19.13;46.21;95915.66;4992835;28;25254;-73
2022/05/25 10:59:41;;;;;;;0.70;0.40;;;;;;;18.99;45.09;95917.00;4992712;28;24533;-73
2022/05/25 11:02:23;;;;;;;1.17;0.50;;;;;;;18.23;44.85;95913.56;4993208;28;24487;-73
2022/05/25 11:05:03;;;;;;;1.05;0.50;;;;;;;17.90;47.00;95918.25;4992543;28;24452;-74
2022/05/25 11:07:33;;;;;;;1.10;0.50;;;;;;;17.90;47.46;95916.47;4992846;28;24433;-76
2022/05/25 11:10:13;;;;;;;2.92;0.40;;;;;;;17.77;50.32;95930.81;4984110;28;24488;-76
2022/05/25 11:12:51;;;;;;;2.15;0.70;;;;;;;17.46;49.30;95930.84;4992913;28;24444;-73
2022/05/25 11:15:25;;;;;;;1.00;0.50;;;;;;;17.91;48.36;95919.94;4992366;28;24441;-74
2022/05/25 11:18:16;;;;;;;0.90;0.47;;;;;;;18.79;56.26;95916.22;4992611;28;24457;-76
2022/05/25 11:20:51;;;;;;;2.65;0.85;;;;;;;19.37;49.19;95904.63;4992442;28;24797;-75
2022/05/25 11:23:43;;;;;;;1.70;0.60;;;;;;;19.14;45.76;95912.09;4992072;28;24448;-74
2022/05/25 11:26:37;;;;;;;2.13;0.53;;;;;;;19.50;48.61;95912.97;4992457;28;24441;-73
2022/05/25 11:29:18;;;;;;;1.70;0.60;;;;;;;19.22;43.81;95906.94;4988487;28;24495;-72
2022/05/25 11:31:57;;;;;;;1.23;0.50;;;;;;;18.88;42.93;95909.28;4991688;28;24437;-75
2022/05/25 11:34:40;;;;;;;1.00;0.50;;;;;;;18.91;42.83;95906.38;4991991;28;24450;-75
2022/05/25 11:37:21;;;;;;;0.55;0.40;;;;;;;18.73;45.57;95908.13;4992151;28;25010;-75
2022/05/25 11:39:58;;;;;;;1.50;0.55;;;;;;;18.79;45.27;95908.34;4973081;28;24436;-75
2022/05/25 11:42:41;;;;;;;2.80;0.50;;;;;;;19.03;43.40;95910.47;4985809;28;24440;-74
2022/05/25 11:45:24;;;;;;;1.77;0.50;;;;;;;19.28;42.63;95913.38;4991841;28;24449;-75
2022/05/25 11:48:05;;;;;;;3.78;0.70;;;;;;;19.68;40.20;95907.78;4991746;28;24437;-73
2022/05/25 11:50:38;;;;;;;1.37;0.60;;;;;;;20.05;41.49;95907.63;4992105;28;24441;-74
2022/05/25 11:53:35;;;;;;;1.30;0.40;;;;;;;20.21;40.68;95914.00;4991988;28;24547;-74
2022/05/25 11:56:19;;;;;;;1.30;0.50;;;;;;;20.56;41.41;95907.06;4991218;28;25049;-74
2022/05/25 11:59:01;;;;;;;2.63;0.60;;;;;;;20.49;38.99;95907.66;4991904;28;24445;-75
2022/05/25 12:01:33;;;;;;;1.10;0.55;;;;;;;20.55;39.33;95903.63;4991657;28;24437;-73
2022/05/25 12:04:26;;;;;;;0.75;0.32;;;;;;;19.96;39.40;95908.53;4991232;28;24444;-73
2022/05/25 12:07:06;;;;;;;1.67;0.60;;;;;;;19.55;40.89;95905.50;4991552;28;24448;-74
2022/05/25 12:09:54;;;;;;;1.40;0.45;;;;;;;19.18;41.97;95912.63;4991838;28;24480;-75
2022/05/25 12:12:27;;;;;;;2.88;0.52;;;;;;;18.74;41.16;95915.00;4991646;28;24440;-70